Time;durP1;ratioP1;P1;durP2;ratioP2;P2;SDS_P1;SDS_P2;PMS_P1;PMS_P2;Temp;Humidity;BMP_temperature;BMP_pressure;BME280_temperature;BME280_humidity;BME280_pressure;Samples;Min_cycle;Max_cycle;Signal;HPM_P1;HPM_P2
2022/04/27 00:00:36;;;;;;;11.97;7.50;;;7.60;99.90;;;;;;6196028;23;20024;-89
2022/04/27 00:03:03;;;;;;;13.80;9.23;;;7.70;99.90;;;;;;6195800;23;20423;-90
2022/04/27 00:05:29;;;;;;;13.27;8.77;;;7.70;99.90;;;;;;6220604;23;20048;-90
2022/04/27 00:08:41;;;;;;;15.05;8.88;;;7.70;99.90;;;;;;6195852;23;20020;-89
2022/04/27 00:16:18;;;;;;;15.50;9.15;;;7.80;99.90;;;;;;6247404;22;20027;-91
2022/04/27 00:18:44;;;;;;;13.55;8.70;;;7.80;99.90;;;;;;6195790;23;20020;-90
2022/04/27 00:21:10;;;;;;;13.87;8.60;;;7.80;99.90;;;;;;6195784;23;20017;-88
2022/04/27 00:23:51;;;;;;;13.67;8.53;;;7.90;99.90;;;;;;6195867;23;20210;-88
2022/04/27 00:26:41;;;;;;;15.48;8.95;;;7.90;99.90;;;;;;6196191;23;20031;-90
2022/04/27 00:29:07;;;;;;;12.68;7.97;;;7.90;99.90;;;;;;6195804;23;20043;-89
2022/04/27 00:31:34;;;;;;;12.38;8.52;;;7.90;99.90;;;;;;6195685;23;20027;-91
2022/04/27 00:34:00;;;;;;;;;;;7.90;99.90;;;;;;6195886;23;20012;-90
2022/04/27 00:36:27;;;;;;;17.30;9.10;;;7.90;99.90;;;;;;6220773;23;19920;-91
2022/04/27 00:39:08;;;;;;;;;;;7.90;99.90;;;;;;6196181;23;20086;-91
2022/04/27 00:41:34;;;;;;;16.45;9.30;;;8.00;99.90;;;;;;6220744;23;19916;-91
2022/04/27 00:43:59;;;;;;;13.83;8.10;;;8.00;99.90;;;;;;6195921;23;20051;-92
2022/04/27 00:46:25;;;;;;;16.40;9.27;;;8.00;99.90;;;;;;6195687;23;20408;-91
2022/04/27 00:48:51;;;;;;;16.03;9.43;;;8.00;99.90;;;;;;6195755;23;20354;-92
2022/04/27 00:51:19;;;;;;;14.30;9.10;;;8.00;99.90;;;;;;6220806;23;20016;-91
2022/04/27 00:53:45;;;;;;;14.35;9.07;;;8.00;99.90;;;;;;6195714;23;20055;-91
2022/04/27 00:56:12;;;;;;;15.70;9.00;;;8.00;99.90;;;;;;6195637;23;20444;-91
2022/04/27 00:58:37;;;;;;;14.35;9.32;;;8.00;99.90;;;;;;6221021;23;20012;-91
2022/04/27 01:01:03;;;;;;;13.63;9.10;;;8.00;99.90;;;;;;6195579;23;20026;-91
2022/04/27 01:03:29;;;;;;;14.07;8.43;;;8.10;99.90;;;;;;6195970;23;20012;-92
2022/04/27 01:05:57;;;;;;;13.27;8.40;;;8.00;99.90;;;;;;6195749;23;20020;-92
2022/04/27 01:08:23;;;;;;;15.88;8.70;;;8.10;99.90;;;;;;6195776;23;20019;-92
2022/04/27 01:10:49;;;;;;;13.83;7.83;;;8.10;99.90;;;;;;6195521;23;20012;-93
2022/04/27 01:13:16;;;;;;;12.27;8.15;;;8.10;99.90;;;;;;6195679;23;20027;-92
2022/04/27 01:15:43;;;;;;;14.15;8.00;;;8.20;99.90;;;;;;6195130;23;20034;-92
2022/04/27 01:18:09;;;;;;;15.85;8.18;;;8.20;99.90;;;;;;6195867;23;20074;-92
2022/04/27 01:20:44;;;;;;;13.82;7.60;;;8.20;99.90;;;;;;6195809;23;20017;-92
2022/04/27 01:23:13;;;;;;;13.65;8.57;;;8.20;99.90;;;;;;6195522;23;20043;-92
2022/04/27 01:25:51;;;;;;;11.65;7.53;;;8.20;99.90;;;;;;6195486;23;20047;-92
2022/04/27 01:28:19;;;;;;;14.35;8.32;;;8.20;99.90;;;;;;6195730;23;20464;-92
2022/04/27 01:30:49;;;;;;;12.30;8.02;;;8.20;99.90;;;;;;6195215;23;20016;-91
2022/04/27 01:33:15;;;;;;;13.13;8.35;;;8.20;99.90;;;;;;6195730;23;20051;-91
2022/04/27 01:35:41;;;;;;;11.70;8.47;;;8.20;99.90;;;;;;6195894;23;20020;-91
2022/04/27 01:38:07;;;;;;;15.80;8.30;;;8.20;99.90;;;;;;6195439;23;20024;-91
2022/04/27 01:40:34;;;;;;;15.73;8.85;;;8.20;99.90;;;;;;6195689;23;20016;-92
2022/04/27 01:42:59;;;;;;;14.05;8.18;;;8.20;99.90;;;;;;6195717;23;20384;-91
2022/04/27 01:45:25;;;;;;;13.03;7.93;;;8.20;99.90;;;;;;6195507;23;20023;-91
2022/04/27 01:47:53;;;;;;;14.10;7.77;;;8.20;99.90;;;;;;6195384;23;20026;-92
2022/04/27 01:50:19;;;;;;;13.05;7.53;;;8.20;99.90;;;;;;6195369;23;20012;-92
2022/04/27 01:55:29;;;;;;;11.82;7.93;;;8.20;99.90;;;;;;6220580;23;20095;-91
2022/04/27 01:57:54;;;;;;;13.40;8.27;;;8.20;99.90;;;;;;6196078;23;20020;-92
2022/04/27 02:00:21;;;;;;;12.53;7.93;;;8.20;99.90;;;;;;6195162;23;20012;-91
2022/04/27 02:02:48;;;;;;;14.07;8.02;;;8.20;99.90;;;;;;6195106;23;20095;-91
2022/04/27 02:05:14;;;;;;;14.15;7.93;;;8.10;99.90;;;;;;6195396;23;20023;-92
2022/04/27 02:07:40;;;;;;;13.48;8.32;;;8.10;99.90;;;;;;6195687;23;20334;-92
2022/04/27 02:10:06;;;;;;;17.57;8.20;;;8.10;99.90;;;;;;6195395;23;20023;-93
2022/04/27 02:12:32;;;;;;;13.23;8.00;;;8.10;99.90;;;;;;6195578;23;20014;-92
2022/04/27 02:14:58;;;;;;;12.60;8.13;;;8.10;99.90;;;;;;6195488;23;20016;-93
2022/04/27 02:17:24;;;;;;;12.30;8.70;;;8.10;99.90;;;;;;6195643;23;20027;-92
2022/04/27 02:19:50;;;;;;;10.98;7.88;;;8.10;99.90;;;;;;6195550;23;20051;-92
2022/04/27 02:22:16;;;;;;;12.37;7.60;;;8.10;99.90;;;;;;6194794;23;20024;-91
2022/04/27 02:24:42;;;;;;;13.27;8.73;;;8.20;99.90;;;;;;6195456;23;20016;-91
2022/04/27 02:27:07;;;;;;;15.10;7.97;;;8.20;99.90;;;;;;6196370;23;20385;-92
2022/04/27 02:29:33;;;;;;;15.27;7.77;;;8.20;99.90;;;;;;6198140;23;20012;-92
2022/04/27 02:31:58;;;;;;;13.30;8.47;;;8.10;99.90;;;;;;6198276;23;20333;-90
2022/04/27 02:34:24;;;;;;;13.40;7.50;;;8.10;99.90;;;;;;6203276;23;20072;-92
2022/04/27 02:36:50;;;;;;;11.77;7.57;;;8.10;99.90;;;;;;6196967;23;20027;-90
2022/04/27 02:39:16;;;;;;;10.17;7.20;;;8.10;99.90;;;;;;6196700;23;20201;-90
2022/04/27 02:41:41;;;;;;;10.27;7.30;;;8.20;99.90;;;;;;6196300;23;20016;-91
2022/04/27 02:44:07;;;;;;;10.40;7.73;;;8.20;99.90;;;;;;6194885;23;20023;-91
2022/04/27 02:46:33;;;;;;;12.73;7.63;;;8.10;99.90;;;;;;6194920;23;20012;-91
2022/04/27 02:51:49;;;;;;;14.40;7.38;;;8.20;99.90;;;;;;6219964;23;20524;-92
2022/04/27 02:54:19;;;;;;;13.23;7.72;;;8.20;99.90;;;;;;6195134;23;20020;-92
2022/04/27 02:56:45;;;;;;;10.88;6.57;;;8.20;99.90;;;;;;6195131;23;20011;-92
2022/04/27 02:59:11;;;;;;;12.02;7.53;;;8.20;99.90;;;;;;6194941;23;20020;-91
2022/04/27 03:01:38;;;;;;;9.50;6.47;;;8.20;99.90;;;;;;6194335;23;20019;-91
2022/04/27 03:04:08;;;;;;;10.95;6.53;;;8.20;99.90;;;;;;6194565;23;20058;-91
2022/04/27 03:06:33;;;;;;;8.55;6.55;;;8.20;99.90;;;;;;6194817;23;20091;-91
2022/04/27 03:08:59;;;;;;;11.67;6.43;;;8.20;99.90;;;;;;6194675;23;20082;-91
2022/04/27 03:11:25;;;;;;;14.20;6.63;;;8.20;99.90;;;;;;6194501;23;20013;-91
2022/04/27 03:13:51;;;;;;;10.33;6.23;;;8.20;99.90;;;;;;6245206;23;20020;-90
2022/04/27 03:16:17;;;;;;;8.80;5.67;;;8.20;99.90;;;;;;6194277;23;20016;-89
2022/04/27 03:18:43;;;;;;;9.57;5.32;;;8.20;99.90;;;;;;6219480;23;20020;-91
2022/04/27 03:21:21;;;;;;;12.32;5.93;;;8.20;99.90;;;;;;6194464;23;20016;-91
2022/04/27 03:23:47;;;;;;;10.25;5.50;;;8.20;99.90;;;;;;6194420;23;20095;-91
2022/04/27 03:26:15;;;;;;;12.98;5.20;;;8.20;99.90;;;;;;6194799;23;20067;-91
2022/04/27 03:28:41;;;;;;;8.77;4.90;;;8.20;99.90;;;;;;6194493;23;20016;-91
2022/04/27 03:31:07;;;;;;;10.97;5.03;;;8.20;99.90;;;;;;6194431;23;20091;-91
2022/04/27 03:33:32;;;;;;;9.60;5.50;;;8.20;99.90;;;;;;6195296;23;20016;-91
2022/04/27 03:35:58;;;;;;;11.10;4.97;;;8.20;99.90;;;;;;6196417;23;20062;-91
2022/04/27 03:38:24;;;;;;;11.37;4.57;;;8.20;99.90;;;;;;6196541;23;20015;-91
2022/04/27 03:40:50;;;;;;;8.77;4.90;;;8.20;99.90;;;;;;6196499;23;20016;-91
2022/04/27 03:43:16;;;;;;;9.35;4.90;;;8.30;99.90;;;;;;6196207;23;20056;-91
2022/04/27 03:45:42;;;;;;;7.70;4.72;;;8.20;99.90;;;;;;6196474;23;20013;-91
2022/04/27 03:48:07;;;;;;;7.07;4.77;;;8.20;99.90;;;;;;6196742;23;20056;-91
2022/04/27 03:50:34;;;;;;;6.93;4.37;;;8.30;99.90;;;;;;6196709;23;20016;-91
2022/04/27 03:53:00;;;;;;;8.93;4.57;;;8.30;99.90;;;;;;6196563;23;20051;-91
2022/04/27 03:55:28;;;;;;;9.43;4.57;;;8.30;99.90;;;;;;6196592;23;20020;-91
2022/04/27 03:57:54;;;;;;;9.10;5.00;;;8.30;99.90;;;;;;6196338;23;20064;-91
2022/04/27 04:00:20;;;;;;;6.70;4.72;;;8.30;99.90;;;;;;6196382;23;20082;-91
2022/04/27 04:02:45;;;;;;;7.77;4.77;;;8.20;99.90;;;;;;6221719;23;20016;-92
2022/04/27 04:05:11;;;;;;;9.73;4.40;;;8.20;99.90;;;;;;6197053;23;20023;-92
2022/04/27 04:07:37;;;;;;;8.60;4.60;;;8.20;99.90;;;;;;6196608;23;20095;-92
2022/04/27 04:10:03;;;;;;;7.87;3.80;;;8.20;99.90;;;;;;6196467;23;20016;-92
2022/04/27 04:12:29;;;;;;;6.85;3.78;;;8.20;99.90;;;;;;6196390;23;20023;-93
2022/04/27 04:14:55;;;;;;;6.30;3.77;;;8.20;99.90;;;;;;6196688;23;20024;-92
2022/04/27 04:17:20;;;;;;;7.27;3.53;;;8.20;99.90;;;;;;6196279;23;20016;-92
2022/04/27 04:19:46;;;;;;;8.23;3.93;;;8.20;99.90;;;;;;6196117;23;20024;-91
2022/04/27 04:22:13;;;;;;;5.87;3.37;;;8.20;99.90;;;;;;6196700;23;20349;-91
2022/04/27 04:28:29;;;;;;;6.15;4.13;;;8.20;99.90;;;;;;6195978;23;20016;-92
2022/04/27 04:30:10;;;;;;;8.43;4.30;;;8.10;99.90;;;;;;6220943;23;20036;-91
2022/04/27 04:32:40;;;;;;;8.83;4.53;;;8.20;99.90;;;;;;6221265;23;20020;-91
2022/04/27 04:35:07;;;;;;;6.68;4.00;;;8.20;99.90;;;;;;6196214;23;20018;-92
2022/04/27 04:37:33;;;;;;;;;;;8.20;99.90;;;;;;6196792;23;20078;-92
2022/04/27 04:39:58;;;;;;;7.93;4.25;;;8.20;99.90;;;;;;6221362;23;19916;-90
2022/04/27 04:42:24;;;;;;;7.90;4.23;;;8.20;99.90;;;;;;6221353;23;20104;-91
2022/04/27 04:44:50;;;;;;;10.50;4.90;;;8.10;99.90;;;;;;6195793;23;20150;-92
2022/04/27 04:47:15;;;;;;;9.90;4.90;;;8.20;99.90;;;;;;6196066;23;20020;-92
2022/04/27 04:49:41;;;;;;;10.37;4.77;;;8.20;99.90;;;;;;6196404;23;20015;-93
2022/04/27 04:52:10;;;;;;;9.00;4.97;;;8.20;99.90;;;;;;6196440;23;20020;-92
2022/04/27 04:54:37;;;;;;;6.85;4.55;;;8.20;99.90;;;;;;6196132;23;20023;-92
2022/04/27 04:57:03;;;;;;;8.80;4.60;;;8.20;99.90;;;;;;6195824;23;20012;-92
2022/04/27 04:59:29;;;;;;;8.18;4.40;;;8.20;99.90;;;;;;6196440;23;20438;-91
2022/04/27 05:01:55;;;;;;;7.85;4.70;;;8.20;99.90;;;;;;6196110;23;20023;-91
2022/04/27 05:04:22;;;;;;;9.87;4.90;;;8.20;99.90;;;;;;6195905;23;20012;-92
2022/04/27 05:06:47;;;;;;;8.65;4.35;;;8.20;99.90;;;;;;6195868;23;20382;-91
2022/04/27 05:09:13;;;;;;;7.90;4.70;;;8.20;99.90;;;;;;6195939;23;20059;-91
2022/04/27 05:11:39;;;;;;;7.07;4.37;;;8.20;99.90;;;;;;6195724;23;20012;-90
2022/04/27 05:14:05;;;;;;;9.33;4.40;;;8.20;99.90;;;;;;6195882;23;20020;-90
2022/04/27 05:16:32;;;;;;;9.30;5.13;;;8.20;99.90;;;;;;6196803;23;20012;-90
2022/04/27 05:19:01;;;;;;;8.32;4.57;;;8.30;99.90;;;;;;6196099;23;20025;-91
2022/04/27 05:21:27;;;;;;;8.95;4.10;;;8.30;99.90;;;;;;6197384;23;20023;-90
2022/04/27 05:23:53;;;;;;;7.33;3.60;;;8.20;99.90;;;;;;6197480;23;20016;-90
2022/04/27 05:26:18;;;;;;;6.13;2.72;;;8.30;99.90;;;;;;6196151;23;20441;-91
2022/04/27 05:34:12;;;;;;;5.93;3.10;;;8.40;99.90;;;;;;6220289;23;20055;-90
2022/04/27 05:36:38;;;;;;;5.83;3.67;;;8.30;99.90;;;;;;6195291;23;20016;-91
2022/04/27 05:39:04;;;;;;;7.30;3.90;;;8.40;99.90;;;;;;6195099;23;20012;-90
2022/04/27 05:41:29;;;;;;;6.83;3.80;;;8.40;99.90;;;;;;6195183;23;20285;-91
2022/04/27 05:43:55;;;;;;;7.23;4.27;;;8.50;99.90;;;;;;6195030;23;20016;-91
2022/04/27 05:46:20;;;;;;;7.97;4.37;;;8.50;99.90;;;;;;6195355;23;20012;-91
2022/04/27 05:48:46;;;;;;;10.37;4.70;;;8.50;99.90;;;;;;6195073;23;20024;-91
2022/04/27 05:51:12;;;;;;;7.37;4.97;;;8.60;99.90;;;;;;6194885;23;20012;-90
2022/04/27 05:53:41;;;;;;;10.23;5.10;;;8.60;99.90;;;;;;6195322;23;20016;-92
2022/04/27 05:56:07;;;;;;;8.80;4.07;;;8.60;99.90;;;;;;6194917;23;20095;-91
2022/04/27 05:58:33;;;;;;;5.73;4.03;;;8.60;99.90;;;;;;6194961;23;20056;-91
2022/04/27 06:00:59;;;;;;;8.05;4.18;;;8.70;99.90;;;;;;6195184;23;20334;-91
2022/04/27 06:03:24;;;;;;;7.37;4.33;;;8.70;99.90;;;;;;6195427;23;20047;-92
2022/04/27 06:05:50;;;;;;;8.47;4.83;;;8.70;99.90;;;;;;6195269;23;20069;-91
2022/04/27 06:08:16;;;;;;;6.97;4.63;;;8.70;99.90;;;;;;6220515;23;20031;-92
2022/04/27 06:10:41;;;;;;;7.87;4.90;;;8.70;99.90;;;;;;6194936;23;20016;-92
2022/04/27 06:13:07;;;;;;;7.43;4.67;;;8.80;99.90;;;;;;6195190;23;20027;-89
2022/04/27 06:15:33;;;;;;;9.03;4.77;;;8.80;99.90;;;;;;6194939;23;20023;-89
2022/04/27 06:17:59;;;;;;;8.50;5.00;;;8.80;99.90;;;;;;6219985;23;20059;-89
2022/04/27 06:20:24;;;;;;;8.10;4.43;;;8.90;99.90;;;;;;6194886;23;20012;-88
2022/04/27 06:22:50;;;;;;;7.83;3.93;;;8.90;99.90;;;;;;6194754;23;20083;-89
2022/04/27 06:25:15;;;;;;;7.87;3.87;;;8.90;99.90;;;;;;6194852;23;20009;-89
2022/04/27 06:27:41;;;;;;;7.90;3.73;;;8.90;99.90;;;;;;6194920;23;20020;-89
2022/04/27 06:30:07;;;;;;;7.73;3.60;;;9.00;99.90;;;;;;6195159;23;20441;-91
2022/04/27 06:32:33;;;;;;;9.07;4.47;;;9.00;99.90;;;;;;6194918;23;20023;-91
2022/04/27 06:35:00;;;;;;;10.73;4.40;;;9.00;99.90;;;;;;6195366;23;20012;-91
2022/04/27 06:37:27;;;;;;;7.47;4.25;;;9.00;99.90;;;;;;6195410;23;20422;-91
2022/04/27 06:39:52;;;;;;;8.70;4.00;;;9.00;99.90;;;;;;6195215;23;20018;-90
2022/04/27 06:42:20;;;;;;;6.53;4.23;;;9.10;99.90;;;;;;6194752;23;20455;-90
2022/04/27 06:44:47;;;;;;;7.13;3.90;;;9.10;99.90;;;;;;6195004;23;20019;-90
2022/04/27 06:47:13;;;;;;;9.40;3.85;;;9.10;99.90;;;;;;6195092;23;20012;-89
2022/04/27 06:49:39;;;;;;;7.38;3.78;;;9.10;99.90;;;;;;6194918;23;20100;-89
2022/04/27 06:52:05;;;;;;;7.87;3.77;;;9.10;99.90;;;;;;6195217;23;20011;-90
2022/04/27 06:54:32;;;;;;;;;;;9.20;99.90;;;;;;6195128;23;20023;-91
2022/04/27 06:56:59;;;;;;;8.18;3.38;;;9.20;99.90;;;;;;6220002;23;19916;-91
2022/04/27 06:59:25;;;;;;;7.05;3.40;;;9.20;99.90;;;;;;6195091;23;20016;-91
2022/04/27 07:01:53;;;;;;;5.78;3.28;;;9.20;99.90;;;;;;6195008;23;20027;-91
2022/04/27 07:04:19;;;;;;;9.43;3.45;;;9.30;99.90;;;;;;6194682;23;20018;-91
2022/04/27 07:06:45;;;;;;;8.60;2.22;;;9.30;99.90;;;;;;6194779;23;20016;-90
2022/04/27 07:09:11;;;;;;;5.38;2.15;;;9.30;99.90;;;;;;6195622;23;20070;-91
2022/04/27 07:11:40;;;;;;;5.70;2.13;;;9.30;99.90;;;;;;6222019;23;20012;-90
2022/04/27 07:14:05;;;;;;;4.00;2.05;;;9.40;99.90;;;;;;6222011;23;20024;-91
2022/04/27 07:16:31;;;;;;;7.47;2.23;;;9.40;99.90;;;;;;6197060;23;20012;-91
2022/04/27 07:18:57;;;;;;;6.13;2.43;;;9.40;99.90;;;;;;6196920;23;20024;-91
2022/04/27 07:21:23;;;;;;;7.33;2.50;;;9.40;99.90;;;;;;6196732;23;20350;-91
2022/04/27 07:23:49;;;;;;;5.87;2.33;;;9.50;99.90;;;;;;6196941;23;20020;-92
2022/04/27 07:26:15;;;;;;;4.00;1.70;;;9.50;99.90;;;;;;6196803;23;20460;-92
2022/04/27 07:28:41;;;;;;;6.43;1.63;;;9.50;99.90;;;;;;6197107;23;20059;-92
2022/04/27 07:31:07;;;;;;;7.20;2.10;;;9.50;99.90;;;;;;6196644;23;20020;-91
2022/04/27 07:33:34;;;;;;;5.78;1.65;;;9.50;99.90;;;;;;6196778;23;20020;-93
2022/04/27 07:36:00;;;;;;;5.85;2.20;;;9.60;99.90;;;;;;6196575;23;20048;-90
2022/04/27 07:38:27;;;;;;;4.63;1.67;;;9.60;99.90;;;;;;6196846;23;20024;-90
2022/04/27 07:40:53;;;;;;;;;;;9.60;99.90;;;;;;6196780;23;20008;-90
2022/04/27 07:43:19;;;;;;;7.43;2.65;;;9.60;99.90;;;;;;6196359;23;20321;-93
2022/04/27 07:45:44;;;;;;;5.27;2.10;;;9.60;99.90;;;;;;6196458;23;20054;-91
2022/04/27 07:48:11;;;;;;;5.53;1.87;;;9.60;99.90;;;;;;6196578;23;20020;-90
2022/04/27 07:50:37;;;;;;;6.65;2.03;;;9.70;99.90;;;;;;6196602;23;20013;-90
2022/04/27 07:53:03;;;;;;;4.07;2.10;;;9.70;99.90;;;;;;6196562;23;20022;-91
2022/04/27 07:55:31;;;;;;;6.00;1.70;;;9.70;99.90;;;;;;6196789;23;20397;-89
2022/04/27 07:57:57;;;;;;;6.38;1.67;;;9.70;99.90;;;;;;6196386;23;20309;-90
2022/04/27 08:00:23;;;;;;;5.77;2.30;;;9.70;99.90;;;;;;6196706;23;20099;-92
2022/04/27 08:02:49;;;;;;;7.37;2.43;;;9.70;99.90;;;;;;6198245;23;20020;-93
2022/04/27 08:05:17;;;;;;;6.63;2.53;;;9.70;99.90;;;;;;6198522;23;20023;-88
2022/04/27 08:07:45;;;;;;;10.27;2.55;;;9.80;99.90;;;;;;6197766;23;20066;-90
2022/04/27 08:10:13;;;;;;;8.32;1.73;;;9.70;99.90;;;;;;6199403;23;20034;-89
2022/04/27 08:12:40;;;;;;;10.40;2.65;;;9.80;99.90;;;;;;6221896;23;20504;-89
2022/04/27 08:15:07;;;;;;;9.02;2.47;;;9.70;99.90;;;;;;6223164;23;20016;-88
2022/04/27 08:17:33;;;;;;;;;;;9.80;99.90;;;;;;6248881;23;20023;-89
2022/04/27 08:22:44;;;;;;;11.20;2.65;;;9.80;99.90;;;;;;6220513;23;20108;-88
2022/04/27 08:25:09;;;;;;;11.30;3.28;;;9.80;99.90;;;;;;6195952;23;20510;-90
2022/04/27 08:27:35;;;;;;;9.73;3.07;;;9.80;99.90;;;;;;6221062;23;20051;-90
2022/04/27 08:30:01;;;;;;;10.87;2.77;;;9.80;99.90;;;;;;6195507;23;20373;-89
2022/04/27 08:32:27;;;;;;;10.93;2.90;;;9.80;99.90;;;;;;6220702;23;20065;-90
2022/04/27 08:34:53;;;;;;;38.97;35.08;;;9.80;99.90;;;;;;6220665;23;20050;-89
2022/04/27 08:37:18;;;;;;;11.53;3.97;;;9.80;99.90;;;;;;6195665;23;20020;-90
2022/04/27 08:39:44;;;;;;;9.37;2.77;;;9.80;99.90;;;;;;6194730;23;20503;-90
2022/04/27 08:42:10;;;;;;;13.73;3.78;;;9.90;99.90;;;;;;6220469;23;20020;-89
2022/04/27 08:44:36;;;;;;;8.43;2.57;;;9.90;99.90;;;;;;6195690;23;20078;-91
2022/04/27 08:47:04;;;;;;;10.87;3.50;;;9.90;99.90;;;;;;6195975;23;20012;-90
2022/04/27 08:49:34;;;;;;;8.95;2.92;;;9.90;99.90;;;;;;6195688;23;20108;-90
2022/04/27 08:52:01;;;;;;;10.98;2.85;;;9.90;99.90;;;;;;6220663;23;20503;-90
2022/04/27 08:54:28;;;;;;;11.93;2.70;;;10.00;99.90;;;;;;6220889;23;20062;-90
2022/04/27 08:56:53;;;;;;;13.18;2.55;;;10.00;99.90;;;;;;6196219;23;20012;-91
2022/04/27 08:59:19;;;;;;;7.40;2.10;;;9.90;99.90;;;;;;6195876;23;20350;-90
2022/04/27 09:01:45;;;;;;;18.35;3.42;;;9.90;99.90;;;;;;6195590;23;20058;-91
2022/04/27 09:04:14;;;;;;;11.30;2.57;;;9.90;99.90;;;;;;6196405;23;20024;-91
2022/04/27 09:06:41;;;;;;;9.52;3.03;;;10.00;99.90;;;;;;6195805;23;20016;-91
2022/04/27 09:09:13;;;;;;;11.63;2.70;;;9.90;99.90;;;;;;6196003;23;20052;-90
2022/04/27 09:11:39;;;;;;;10.32;2.40;;;9.90;99.90;;;;;;6195979;23;20043;-91
2022/04/27 09:14:07;;;;;;;12.88;2.65;;;9.90;99.90;;;;;;6195327;23;20051;-89
2022/04/27 09:22:08;;;;;;;12.38;2.38;;;10.00;99.90;;;;;;6219913;23;20024;-90
2022/04/27 09:24:51;;;;;;;15.18;2.53;;;10.10;99.90;;;;;;6194974;23;20035;-89
2022/04/27 09:27:25;;;;;;;9.85;2.10;;;10.10;99.90;;;;;;6195545;23;20024;-93
2022/04/27 09:29:55;;;;;;;11.77;2.40;;;10.10;99.90;;;;;;6196168;23;20023;-93
2022/04/27 09:48:15;;;;;;;10.70;2.22;;;10.20;99.90;;;;;;6246708;22;20027;-91
2022/04/27 09:51:14;;;;;;;11.55;2.53;;;10.20;99.90;;;;;;6195001;23;20109;-91
2022/04/27 09:53:45;;;;;;;13.55;2.63;;;10.20;99.90;;;;;;6146700;23;20016;-91
2022/04/27 09:56:12;;;;;;;10.95;2.38;;;10.30;99.90;;;;;;6195088;23;20012;-90
2022/04/27 09:58:47;;;;;;;10.10;2.35;;;10.20;99.90;;;;;;6194486;23;20027;-90
2022/04/27 10:01:16;;;;;;;9.10;2.72;;;10.20;99.90;;;;;;6195044;23;20023;-90
2022/04/27 10:03:47;;;;;;;12.77;2.40;;;10.20;99.90;;;;;;6195003;23;20460;-92
2022/04/27 10:06:13;;;;;;;10.50;2.85;;;10.20;99.90;;;;;;6194961;23;20016;-91
2022/04/27 10:08:40;;;;;;;11.05;2.80;;;10.20;99.90;;;;;;6194529;23;20070;-91
2022/04/27 10:11:09;;;;;;;11.27;2.40;;;10.10;99.90;;;;;;6195005;23;20090;-91
2022/04/27 10:13:36;;;;;;;10.43;2.38;;;10.10;99.90;;;;;;6194730;23;20020;-92
2022/04/27 10:16:03;;;;;;;10.43;2.13;;;10.10;99.90;;;;;;6194853;23;20020;-93
2022/04/27 10:18:31;;;;;;;11.30;3.45;;;10.10;99.90;;;;;;6195052;23;20050;-94
2022/04/27 10:20:56;;;;;;;10.05;2.47;;;10.00;99.90;;;;;;6194929;23;20016;-94
2022/04/27 10:26:29;;;;;;;12.80;2.70;;;10.00;99.90;;;;;;6275649;22;20028;-91
2022/04/27 10:29:00;;;;;;;10.98;2.97;;;10.00;99.90;;;;;;6250158;22;20019;-91
2022/04/27 10:31:42;;;;;;;13.15;2.47;;;10.00;99.90;;;;;;6225568;22;20020;-91
2022/04/27 10:34:26;;;;;;;11.13;2.53;;;10.00;99.90;;;;;;6224720;22;20026;-93
2022/04/27 10:37:00;;;;;;;8.30;2.25;;;10.10;99.90;;;;;;6225178;22;20441;-91
2022/04/27 10:39:28;;;;;;;13.77;2.55;;;10.10;99.90;;;;;;6225417;22;20031;-91
2022/04/27 10:42:03;;;;;;;13.70;2.45;;;10.10;99.90;;;;;;6224987;22;20086;-90
2022/04/27 10:44:47;;;;;;;12.32;2.65;;;10.10;99.90;;;;;;6226203;22;20081;-90
2022/04/27 10:47:23;;;;;;;9.52;2.30;;;10.10;99.90;;;;;;6226504;22;20018;-89
2022/04/27 10:50:13;;;;;;;11.82;2.15;;;10.10;99.90;;;;;;6226725;22;20020;-92
2022/04/27 10:52:55;;;;;;;11.75;2.53;;;10.10;99.90;;;;;;6226866;22;20039;-92
2022/04/27 10:55:38;;;;;;;12.65;2.90;;;10.20;99.90;;;;;;6227112;22;20015;-91
2022/04/27 10:58:14;;;;;;;10.70;2.13;;;10.10;99.90;;;;;;6227653;22;20441;-91
2022/04/27 11:00:58;;;;;;;15.93;2.63;;;10.20;99.90;;;;;;6229851;22;20020;-90
2022/04/27 11:03:27;;;;;;;11.82;2.33;;;10.20;99.90;;;;;;6227959;22;20020;-89
2022/04/27 11:05:58;;;;;;;9.20;2.53;;;10.20;99.90;;;;;;6227396;22;20016;-90
2022/04/27 11:08:32;;;;;;;10.02;2.40;;;10.30;99.90;;;;;;6229227;22;20066;-90
2022/04/27 11:11:14;;;;;;;12.25;2.15;;;10.30;99.90;;;;;;6252041;22;20066;-89
2022/04/27 11:48:29;;;;;;;10.73;2.75;;;10.60;99.90;;;;;;6247319;22;20020;-90
2022/04/27 11:50:57;;;;;;;11.75;2.80;;;10.60;99.90;;;;;;6196041;23;20024;-91
2022/04/27 11:53:23;;;;;;;11.52;2.75;;;10.60;99.90;;;;;;6195765;23;20039;-90
2022/04/27 11:55:50;;;;;;;15.90;2.67;;;10.60;99.90;;;;;;6195964;23;20512;-89
2022/04/27 11:58:27;;;;;;;11.43;2.90;;;10.70;99.90;;;;;;6196232;23;20082;-89
2022/04/27 12:00:57;;;;;;;18.42;2.85;;;10.70;99.90;;;;;;6195853;23;20054;-90
2022/04/27 12:03:24;;;;;;;13.30;2.80;;;10.70;99.90;;;;;;6195892;23;20450;-89
2022/04/27 12:05:52;;;;;;;11.40;2.53;;;10.70;99.90;;;;;;6195663;23;20044;-89
2022/04/27 12:08:22;;;;;;;9.70;2.35;;;10.80;99.90;;;;;;6196009;23;20020;-90
2022/04/27 12:10:51;;;;;;;9.50;2.58;;;10.80;99.90;;;;;;6196327;23;20066;-89
2022/04/27 12:13:21;;;;;;;9.48;2.47;;;10.90;99.90;;;;;;6195729;23;20047;-90
2022/04/27 12:15:50;;;;;;;11.90;2.50;;;10.90;99.60;;;;;;6195903;23;20063;-91
2022/04/27 12:18:27;;;;;;;15.85;3.10;;;10.90;99.40;;;;;;6195511;23;20445;-89
2022/04/27 12:20:57;;;;;;;12.73;2.88;;;11.00;99.30;;;;;;6195507;23;20081;-89
2022/04/27 12:23:36;;;;;;;9.82;2.00;;;11.00;99.00;;;;;;6195432;23;20016;-90
2022/04/27 12:26:02;;;;;;;12.40;2.38;;;11.00;98.70;;;;;;6195503;23;20012;-90
2022/04/27 12:28:30;;;;;;;8.32;2.22;;;11.00;98.60;;;;;;6195549;23;20051;-89
2022/04/27 12:30:57;;;;;;;9.40;1.90;;;11.00;98.60;;;;;;6220710;23;20035;-89
2022/04/27 12:33:26;;;;;;;11.13;2.20;;;11.10;98.60;;;;;;6195717;23;20484;-90
2022/04/27 12:38:55;;;;;;;10.52;2.45;;;11.20;97.70;;;;;;6220661;23;20154;-90
2022/04/27 12:41:42;;;;;;;10.50;2.72;;;11.20;97.50;;;;;;6195462;23;20016;-90
2022/04/27 12:44:17;;;;;;;8.18;2.40;;;11.30;97.60;;;;;;6220528;23;20055;-89
2022/04/27 12:47:03;;;;;;;8.85;2.22;;;11.30;97.60;;;;;;6195013;23;20346;-89
2022/04/27 12:49:30;;;;;;;9.57;1.90;;;11.40;98.00;;;;;;6193002;23;20023;-90
2022/04/27 12:52:36;;;;;;;10.98;2.15;;;11.50;97.70;;;;;;6219579;23;20063;-89
2022/04/27 12:55:08;;;;;;;10.98;2.33;;;11.50;96.90;;;;;;6195263;23;20454;-90
2022/04/27 12:57:52;;;;;;;8.55;2.25;;;11.50;96.80;;;;;;6220409;23;20052;-91
2022/04/27 13:00:20;;;;;;;9.10;2.20;;;11.50;96.60;;;;;;6220333;23;20020;-90
2022/04/27 13:02:46;;;;;;;7.13;2.13;;;11.40;96.40;;;;;;6195258;23;20027;-90
2022/04/27 13:05:12;;;;;;;11.45;2.33;;;11.40;96.30;;;;;;6195641;23;20342;-92
2022/04/27 13:07:40;;;;;;;11.93;2.40;;;11.40;96.40;;;;;;6193779;23;20054;-91
2022/04/27 13:12:51;;;;;;;12.85;3.20;;;11.40;96.60;;;;;;6220066;23;20023;-89
2022/04/27 13:15:17;;;;;;;12.07;2.70;;;11.40;96.70;;;;;;6194116;23;20020;-90
2022/04/27 13:17:43;;;;;;;11.73;2.78;;;11.30;96.90;;;;;;6195613;23;20050;-90
2022/04/27 13:20:09;;;;;;;10.97;2.73;;;11.30;97.30;;;;;;6195172;23;20016;-89
2022/04/27 13:22:36;;;;;;;15.75;2.85;;;11.30;97.20;;;;;;6195056;23;20024;-90
2022/04/27 13:25:02;;;;;;;10.20;2.58;;;11.30;97.20;;;;;;6194955;23;20346;-90
2022/04/27 13:27:28;;;;;;;10.70;2.90;;;11.30;97.10;;;;;;6195205;23;20023;-89
2022/04/27 13:29:57;;;;;;;10.05;2.35;;;11.30;97.30;;;;;;6195002;23;20061;-88
2022/04/27 13:32:26;;;;;;;11.82;2.85;;;11.30;97.30;;;;;;6219409;23;20028;-88
2022/04/27 13:34:52;;;;;;;13.30;2.50;;;11.30;97.10;;;;;;6219419;23;20016;-87
2022/04/27 13:37:21;;;;;;;9.90;2.15;;;11.30;97.10;;;;;;6194143;23;20366;-90
2022/04/27 13:39:47;;;;;;;9.75;2.40;;;11.30;96.90;;;;;;6218447;23;20019;-87
2022/04/27 13:42:14;;;;;;;12.05;2.80;;;11.30;96.70;;;;;;6194679;23;20046;-89
2022/04/27 13:44:39;;;;;;;13.52;2.95;;;11.40;96.80;;;;;;6219668;23;20016;-88
2022/04/27 13:47:06;;;;;;;11.70;2.97;;;11.50;96.90;;;;;;6194458;23;20102;-90
2022/04/27 13:49:31;;;;;;;11.43;2.28;;;11.50;96.80;;;;;;6194670;23;20020;-90
2022/04/27 13:51:57;;;;;;;14.53;2.73;;;11.50;96.60;;;;;;6194467;23;20095;-90
2022/04/27 13:54:23;;;;;;;10.32;2.30;;;11.50;96.60;;;;;;6219570;23;20024;-90
2022/04/27 13:56:49;;;;;;;10.20;2.57;;;11.50;96.60;;;;;;6194851;23;20059;-89
2022/04/27 13:59:15;;;;;;;10.82;2.28;;;11.40;96.70;;;;;;6220398;23;20016;-91
2022/04/27 14:01:41;;;;;;;13.43;2.63;;;11.30;96.70;;;;;;6220721;23;20008;-90
2022/04/27 14:04:07;;;;;;;10.95;2.35;;;11.20;96.90;;;;;;6195346;23;20047;-89
2022/04/27 14:06:33;;;;;;;9.48;2.40;;;11.20;97.20;;;;;;6195817;23;20086;-89
2022/04/27 14:08:59;;;;;;;9.77;2.15;;;11.30;97.20;;;;;;6195025;23;20074;-90
2022/04/27 14:14:11;;;;;;;10.82;2.60;;;11.20;96.80;;;;;;6219595;23;20507;-89
2022/04/27 14:19:23;;;;;;;9.38;2.08;;;11.20;96.70;;;;;;6219268;23;20016;-90
2022/04/27 14:21:49;;;;;;;12.15;3.05;;;11.30;96.60;;;;;;6193962;23;20012;-89
2022/04/27 14:24:16;;;;;;;9.50;2.35;;;11.20;96.50;;;;;;6215782;23;20032;-88
2022/04/27 14:26:42;;;;;;;7.22;2.10;;;11.30;96.50;;;;;;6189582;23;20017;-90